createdAt,value
2018-12-12T00:00:32.087Z,18.60
2018-12-12T00:01:34.528Z,13.83
2018-12-12T00:02:37.050Z,13.00
2018-12-12T00:03:39.489Z,16.73
2018-12-12T00:04:41.959Z,14.23
2018-12-12T00:05:44.423Z,13.68
2018-12-12T00:06:46.873Z,15.15
2018-12-12T00:07:49.310Z,16.02
2018-12-12T00:08:51.737Z,18.90
2018-12-12T00:09:54.195Z,22.45
2018-12-12T00:10:56.651Z,18.70
2018-12-12T00:11:59.084Z,22.50
2018-12-12T00:13:01.528Z,15.08
2018-12-12T00:14:04.139Z,13.10
2018-12-12T00:15:06.688Z,13.83
2018-12-12T00:16:09.126Z,15.80
2018-12-12T00:17:11.566Z,19.92
2018-12-12T00:18:14.046Z,15.30
2018-12-12T00:19:16.479Z,13.78
2018-12-12T00:20:18.938Z,14.70
2018-12-12T00:21:21.392Z,12.30
2018-12-12T00:22:23.839Z,11.40
2018-12-12T00:23:26.277Z,15.70
2018-12-12T00:24:28.825Z,12.98
2018-12-12T00:25:31.282Z,16.70
2018-12-12T00:26:33.760Z,13.08
2018-12-12T00:27:36.197Z,13.32
2018-12-12T00:28:38.645Z,12.75
2018-12-12T00:29:41.091Z,16.82
2018-12-12T00:30:43.547Z,19.80
2018-12-12T00:31:45.995Z,11.85
2018-12-12T00:32:48.429Z,13.43
2018-12-12T00:33:50.870Z,16.20
2018-12-12T00:34:53.307Z,11.22
2018-12-12T00:35:55.772Z,21.33
2018-12-12T00:36:58.212Z,9.85
2018-12-12T00:38:00.656Z,15.18
2018-12-12T00:39:05.094Z,12.60
2018-12-12T00:40:07.625Z,13.48
2018-12-12T00:41:10.124Z,14.10
2018-12-12T00:42:12.561Z,13.72
2018-12-12T00:43:14.998Z,13.35
2018-12-12T00:44:17.432Z,16.23
2018-12-12T00:45:19.871Z,13.08
2018-12-12T00:46:22.340Z,9.68
2018-12-12T00:47:24.799Z,9.20
2018-12-12T00:48:27.239Z,13.30
2018-12-12T00:49:29.676Z,9.33
2018-12-12T00:50:32.130Z,9.40
2018-12-12T00:51:34.851Z,20.35
2018-12-12T00:52:37.301Z,12.58
2018-12-12T00:53:39.733Z,9.98
2018-12-12T00:54:42.237Z,21.50
2018-12-12T00:55:44.695Z,13.03
2018-12-12T00:56:47.143Z,7.80
2018-12-12T00:57:49.671Z,8.25
2018-12-12T00:58:52.097Z,15.28
2018-12-12T00:59:54.531Z,14.75
2018-12-12T01:00:56.977Z,12.47
2018-12-12T01:01:59.431Z,13.08
2018-12-12T01:03:01.910Z,8.00
2018-12-12T01:04:04.469Z,12.88
2018-12-12T01:05:07.115Z,13.05
2018-12-12T01:06:09.546Z,9.45
2018-12-12T01:07:12.007Z,10.43
2018-12-12T01:08:14.461Z,6.50
2018-12-12T01:09:16.887Z,9.98
2018-12-12T01:10:19.347Z,14.10
2018-12-12T01:13:02.327Z,10.18
2018-12-12T01:14:04.783Z,9.03
2018-12-12T01:15:07.226Z,10.35
2018-12-12T01:16:09.755Z,12.23
2018-12-12T01:17:12.183Z,11.18
2018-12-12T01:18:14.636Z,10.18
2018-12-12T01:19:17.066Z,14.30
2018-12-12T01:20:19.510Z,12.05
2018-12-12T01:21:21.965Z,12.75
2018-12-12T01:22:24.398Z,16.77
2018-12-12T01:23:26.844Z,14.55
2018-12-12T01:24:29.311Z,13.13
2018-12-12T01:25:31.762Z,12.43
2018-12-12T01:26:34.200Z,12.20
2018-12-12T01:27:36.633Z,10.85
2018-12-12T01:28:39.073Z,8.05
2018-12-12T01:29:41.610Z,8.18
2018-12-12T01:30:44.047Z,8.25
2018-12-12T01:31:46.481Z,11.18
2018-12-12T01:32:48.912Z,9.98
2018-12-12T01:33:51.568Z,10.60
2018-12-12T01:34:54.067Z,11.35
2018-12-12T01:35:56.501Z,9.73
2018-12-12T01:36:59.116Z,7.80
2018-12-12T01:38:01.567Z,14.07
2018-12-12T01:39:06.574Z,10.15
2018-12-12T01:40:09.011Z,18.52
2018-12-12T01:41:11.554Z,10.53
2018-12-12T01:42:13.988Z,11.53
2018-12-12T01:43:16.424Z,10.08
2018-12-12T01:44:18.881Z,13.15
2018-12-12T01:45:21.331Z,19.77
2018-12-12T01:46:23.778Z,12.78
2018-12-12T01:47:26.206Z,12.28
2018-12-12T01:48:28.661Z,16.75
2018-12-12T01:49:31.135Z,14.10
2018-12-12T01:50:33.610Z,10.72
2018-12-12T01:51:36.060Z,18.20
2018-12-12T01:52:38.487Z,14.03
2018-12-12T01:53:40.928Z,12.15
2018-12-12T01:54:43.399Z,15.58
2018-12-12T01:55:45.855Z,12.10
2018-12-12T01:56:48.288Z,13.65
2018-12-12T01:57:50.726Z,16.45
2018-12-12T01:58:53.163Z,12.85
2018-12-12T01:59:55.708Z,12.53
2018-12-12T02:00:58.139Z,18.00
2018-12-12T02:02:00.567Z,10.60
2018-12-12T02:03:03.009Z,9.70
2018-12-12T02:04:05.644Z,20.57
2018-12-12T02:05:08.095Z,16.73
2018-12-12T02:06:10.551Z,14.23
2018-12-12T02:07:12.989Z,11.00
2018-12-12T02:08:15.508Z,20.10
2018-12-12T02:09:17.942Z,14.28
2018-12-12T02:10:20.409Z,14.18
2018-12-12T02:11:22.982Z,11.12
2018-12-12T02:12:25.419Z,14.73
2018-12-12T02:13:34.679Z,18.35
2018-12-12T02:14:37.111Z,11.43
2018-12-12T02:15:39.570Z,20.00
2018-12-12T02:16:42.028Z,11.30
2018-12-12T02:17:44.460Z,16.02
2018-12-12T02:18:46.967Z,7.53
2018-12-12T02:19:49.399Z,10.93
2018-12-12T02:20:51.852Z,14.05
2018-12-12T02:21:54.309Z,17.85
2018-12-12T02:22:56.741Z,13.98
2018-12-12T02:23:59.184Z,12.63
2018-12-12T02:25:01.612Z,9.85
2018-12-12T02:26:04.084Z,16.10
2018-12-12T02:27:06.550Z,14.25
2018-12-12T02:28:09.079Z,11.08
2018-12-12T02:29:11.508Z,9.10
2018-12-12T02:30:14.133Z,15.60
2018-12-12T02:31:16.583Z,12.00
2018-12-12T02:32:19.035Z,11.40
2018-12-12T02:33:21.477Z,13.13
2018-12-12T02:34:23.907Z,16.02
2018-12-12T02:35:26.352Z,12.45
2018-12-12T02:36:28.808Z,15.68
2018-12-12T02:37:31.256Z,15.25
2018-12-12T02:38:33.703Z,11.43
2018-12-12T02:39:36.150Z,13.43
2018-12-12T02:40:38.584Z,9.03
2018-12-12T02:41:41.042Z,13.15
2018-12-12T02:42:43.527Z,13.88
2018-12-12T02:43:46.067Z,18.40
2018-12-12T02:44:48.509Z,24.82
2018-12-12T02:45:51.029Z,16.05
2018-12-12T02:46:53.482Z,17.90
2018-12-12T02:47:55.951Z,17.82
2018-12-12T02:48:58.389Z,11.57
2018-12-12T02:50:00.833Z,10.60
2018-12-12T02:51:03.275Z,16.00
2018-12-12T02:52:05.725Z,11.15
2018-12-12T02:53:08.193Z,13.78
2018-12-12T02:54:10.645Z,13.62
2018-12-12T02:55:13.077Z,9.70
2018-12-12T02:56:15.498Z,9.40
2018-12-12T02:57:17.946Z,13.00
2018-12-12T02:58:20.407Z,11.88
2018-12-12T02:59:22.847Z,19.60
2018-12-12T03:00:25.318Z,15.72
2018-12-12T03:01:27.748Z,10.03
2018-12-12T03:02:30.284Z,11.03
2018-12-12T03:03:32.770Z,16.17
2018-12-12T03:04:35.204Z,12.25
2018-12-12T03:05:37.660Z,11.03
2018-12-12T03:06:40.211Z,16.12
2018-12-12T03:07:42.698Z,13.18
2018-12-12T03:08:45.156Z,10.58
2018-12-12T03:09:47.597Z,9.25
2018-12-12T03:10:50.031Z,22.27
2018-12-12T03:11:52.458Z,8.50
2018-12-12T03:12:54.933Z,12.05
2018-12-12T03:13:57.411Z,12.28
2018-12-12T03:14:59.855Z,10.40
2018-12-12T03:16:02.296Z,16.42
2018-12-12T03:17:04.728Z,8.83
2018-12-12T03:18:07.187Z,10.65
2018-12-12T03:19:09.708Z,10.30
2018-12-12T03:20:12.236Z,11.97
2018-12-12T03:21:14.812Z,12.75
2018-12-12T03:22:17.239Z,10.93
2018-12-12T03:23:19.698Z,11.88
2018-12-12T03:24:22.154Z,12.68
2018-12-12T03:25:24.601Z,12.98
2018-12-12T03:26:27.030Z,13.35
2018-12-12T03:27:29.470Z,10.95
2018-12-12T03:28:31.928Z,13.15
2018-12-12T03:29:34.369Z,11.33
2018-12-12T03:30:36.813Z,8.75
2018-12-12T03:31:39.249Z,6.72
2018-12-12T03:32:41.701Z,10.05
2018-12-12T03:33:44.158Z,12.25
2018-12-12T03:34:46.600Z,18.17
2018-12-12T03:35:49.040Z,18.00
2018-12-12T03:36:51.468Z,15.15
2018-12-12T03:37:53.906Z,12.80
2018-12-12T03:38:56.351Z,15.63
2018-12-12T03:39:59.296Z,17.62
2018-12-12T03:41:02.052Z,9.20
2018-12-12T03:42:04.579Z,10.82
2018-12-12T03:43:07.011Z,10.82
2018-12-12T03:44:09.486Z,16.20
2018-12-12T03:45:12.084Z,10.93
2018-12-12T03:46:14.521Z,13.78
2018-12-12T03:47:16.968Z,14.75
2018-12-12T03:48:21.408Z,11.85
2018-12-12T03:49:23.860Z,12.47
2018-12-12T03:50:26.307Z,14.63
2018-12-12T03:51:28.748Z,20.08
2018-12-12T03:52:31.743Z,11.60
2018-12-12T03:53:34.187Z,8.63
2018-12-12T03:54:36.651Z,12.75
2018-12-12T03:55:39.117Z,8.58
2018-12-12T03:56:41.558Z,12.03
2018-12-12T03:57:43.995Z,8.15
2018-12-12T03:58:46.424Z,12.37
2018-12-12T03:59:48.887Z,17.02
2018-12-12T04:00:51.440Z,26.85
2018-12-12T04:01:53.887Z,21.30
2018-12-12T04:02:56.323Z,10.93
2018-12-12T04:03:58.757Z,10.78
2018-12-12T04:05:01.226Z,10.80
2018-12-12T04:06:03.667Z,9.00
2018-12-12T04:07:06.223Z,15.28
2018-12-12T04:08:08.660Z,20.48
2018-12-12T04:09:11.103Z,15.75
2018-12-12T04:10:13.545Z,7.75
2018-12-12T04:11:15.988Z,14.10
2018-12-12T04:12:18.419Z,12.43
2018-12-12T04:13:20.863Z,20.77
2018-12-12T04:14:23.304Z,13.10
2018-12-12T04:15:25.754Z,10.90
2018-12-12T04:16:28.471Z,12.23
2018-12-12T04:17:30.903Z,11.88
2018-12-12T04:18:33.439Z,9.63
2018-12-12T04:19:35.879Z,13.45
2018-12-12T04:20:38.335Z,12.55
2018-12-12T04:21:40.794Z,11.85
2018-12-12T04:22:43.224Z,16.50
2018-12-12T04:23:45.669Z,9.10
2018-12-12T04:24:48.391Z,13.72
2018-12-12T04:25:50.851Z,12.68
2018-12-12T04:26:53.317Z,7.92
2018-12-12T04:27:55.761Z,12.63
2018-12-12T04:28:58.219Z,14.38
2018-12-12T04:30:00.720Z,15.38
2018-12-12T04:31:03.175Z,12.25
2018-12-12T04:32:05.632Z,11.33
2018-12-12T04:33:08.073Z,12.75
2018-12-12T04:34:10.517Z,11.93
2018-12-12T04:35:12.957Z,15.05
2018-12-12T04:36:15.412Z,13.35
2018-12-12T04:37:17.890Z,16.10
2018-12-12T04:38:20.319Z,10.90
2018-12-12T04:39:22.769Z,10.98
2018-12-12T04:40:25.209Z,19.98
2018-12-12T04:41:27.664Z,14.43
2018-12-12T04:42:30.122Z,13.18
2018-12-12T04:43:32.563Z,12.75
2018-12-12T04:44:35.059Z,14.25
2018-12-12T04:45:37.491Z,12.82
2018-12-12T04:46:39.972Z,13.80
2018-12-12T04:47:42.432Z,11.83
2018-12-12T04:48:44.870Z,12.68
2018-12-12T04:49:47.312Z,13.05
2018-12-12T04:50:49.747Z,11.22
2018-12-12T04:51:52.234Z,13.03
2018-12-12T04:52:54.678Z,24.80
2018-12-12T04:53:57.118Z,20.60
2018-12-12T04:54:59.564Z,10.15
2018-12-12T04:56:02.025Z,15.03
2018-12-12T04:57:04.484Z,16.75
2018-12-12T04:58:06.919Z,13.28
2018-12-12T04:59:09.824Z,12.95
2018-12-12T05:00:12.344Z,13.43
2018-12-12T05:01:14.882Z,15.85
2018-12-12T05:02:19.311Z,10.90
2018-12-12T05:03:21.759Z,11.68
2018-12-12T05:04:24.196Z,11.20
2018-12-12T05:05:26.648Z,15.18
2018-12-12T05:06:29.093Z,18.42
2018-12-12T05:07:31.547Z,15.40
2018-12-12T05:08:33.997Z,16.42
2018-12-12T05:09:36.428Z,14.20
2018-12-12T05:10:38.865Z,16.37
2018-12-12T05:11:41.315Z,14.93
2018-12-12T05:12:43.769Z,12.07
2018-12-12T05:13:46.224Z,14.68
2018-12-12T05:14:48.666Z,23.20
2018-12-12T05:15:51.095Z,13.88
2018-12-12T05:16:53.619Z,12.20
2018-12-12T05:17:56.076Z,18.90
2018-12-12T05:18:58.518Z,18.52
2018-12-12T05:20:00.952Z,16.20
2018-12-12T05:21:03.391Z,17.73
2018-12-12T05:22:05.845Z,15.58
2018-12-12T05:23:08.320Z,20.60
2018-12-12T05:24:10.771Z,14.23
2018-12-12T05:25:13.220Z,17.00
2018-12-12T05:26:15.656Z,20.57
2018-12-12T05:27:18.086Z,21.70
2018-12-12T05:28:20.558Z,15.55
2018-12-12T05:29:23.015Z,18.42
2018-12-12T05:30:26.348Z,19.98
2018-12-12T05:31:28.799Z,29.18
2018-12-12T05:32:31.263Z,19.67
2018-12-12T05:33:33.723Z,23.35
2018-12-12T05:34:36.185Z,23.07
2018-12-12T05:35:38.630Z,18.60
2018-12-12T05:36:41.059Z,17.52
2018-12-12T05:37:50.635Z,19.87
2018-12-12T05:38:47.995Z,28.07
2018-12-12T05:39:50.430Z,23.57
2018-12-12T05:40:52.877Z,15.70
2018-12-12T05:41:55.315Z,20.52
2018-12-12T05:42:57.764Z,16.40
2018-12-12T05:44:00.222Z,31.17
2018-12-12T05:45:02.788Z,30.60
2018-12-12T05:46:05.212Z,26.68
2018-12-12T05:47:07.663Z,21.27
2018-12-12T05:48:10.118Z,15.05
2018-12-12T05:49:12.649Z,16.35
2018-12-12T05:50:15.101Z,26.12
2018-12-12T05:51:17.533Z,16.37
2018-12-12T05:52:19.975Z,17.92
2018-12-12T05:53:22.420Z,21.48
2018-12-12T05:54:25.577Z,20.10
2018-12-12T05:55:28.862Z,23.25
2018-12-12T05:56:31.532Z,23.57
2018-12-12T05:57:33.978Z,24.05
2018-12-12T05:58:36.428Z,21.62
2018-12-12T05:59:38.879Z,18.82
2018-12-12T06:00:41.327Z,18.75
2018-12-12T06:01:43.772Z,21.05
2018-12-12T06:02:46.216Z,21.75
2018-12-12T06:03:48.647Z,19.35
2018-12-12T06:04:51.111Z,18.17
2018-12-12T06:05:53.548Z,21.77
2018-12-12T06:06:55.983Z,21.60
2018-12-12T06:07:58.434Z,17.37
2018-12-12T06:09:00.901Z,23.30
2018-12-12T06:10:05.088Z,25.85
2018-12-12T06:11:07.557Z,24.40
2018-12-12T06:12:10.004Z,20.65
2018-12-12T06:13:12.453Z,24.45
2018-12-12T06:14:14.906Z,18.07
2018-12-12T06:15:17.371Z,17.57
2018-12-12T06:16:19.844Z,21.05
2018-12-12T06:17:22.281Z,25.00
2018-12-12T06:18:24.744Z,21.87
2018-12-12T06:19:27.186Z,27.65
2018-12-12T06:20:29.650Z,29.92
2018-12-12T06:21:32.114Z,19.00
2018-12-12T06:22:37.642Z,22.73
2018-12-12T06:23:39.323Z,22.60
2018-12-12T06:24:41.857Z,25.35
2018-12-12T06:25:44.327Z,28.05
2018-12-12T06:26:46.842Z,28.55
2018-12-12T06:27:49.296Z,23.52
2018-12-12T06:28:51.732Z,26.23
2018-12-12T06:29:54.227Z,24.40
2018-12-12T06:30:56.699Z,15.75
2018-12-12T06:31:59.152Z,24.75
2018-12-12T06:33:01.587Z,26.93
2018-12-12T06:34:04.027Z,32.53
2018-12-12T06:35:06.594Z,38.40
2018-12-12T06:36:09.048Z,31.77
2018-12-12T06:37:11.518Z,31.35
2018-12-12T06:38:13.976Z,45.50
2018-12-12T06:39:16.551Z,32.85
2018-12-12T06:40:19.299Z,36.70
2018-12-12T06:41:21.754Z,29.23
2018-12-12T06:42:24.204Z,39.15
2018-12-12T06:43:26.656Z,28.55
2018-12-12T06:44:29.123Z,28.35
2018-12-12T06:45:31.577Z,28.47
2018-12-12T06:46:34.044Z,27.35
2018-12-12T06:47:36.507Z,21.42
2018-12-12T06:48:38.958Z,22.98
2018-12-12T06:49:41.452Z,30.32
2018-12-12T06:50:43.893Z,25.70
2018-12-12T06:51:46.340Z,21.07
2018-12-12T06:52:48.807Z,26.10
2018-12-12T06:53:51.263Z,23.62
2018-12-12T06:54:53.698Z,21.23
2018-12-12T06:55:56.178Z,24.95
2018-12-12T06:56:58.654Z,35.83
2018-12-12T06:58:01.112Z,28.45
2018-12-12T06:59:03.560Z,25.43
2018-12-12T07:00:09.907Z,19.57
2018-12-12T07:01:12.346Z,27.05
2018-12-12T07:02:14.799Z,32.33
2018-12-12T07:03:17.249Z,26.55
2018-12-12T07:04:19.689Z,27.37
2018-12-12T07:05:22.133Z,39.48
2018-12-12T07:06:24.659Z,48.15
2018-12-12T07:07:27.192Z,32.75
2018-12-12T07:08:29.630Z,26.87
2018-12-12T07:09:32.107Z,26.85
2018-12-12T07:10:34.559Z,25.77
2018-12-12T07:11:37.099Z,24.85
2018-12-12T07:12:39.584Z,31.55
2018-12-12T07:13:42.037Z,24.77
2018-12-12T07:14:44.484Z,27.62
2018-12-12T07:15:46.922Z,31.40
2018-12-12T07:16:49.397Z,22.77
2018-12-12T07:17:51.862Z,27.82
2018-12-12T07:18:54.792Z,28.98
2018-12-12T07:19:57.229Z,32.30
2018-12-12T07:20:59.679Z,32.40
2018-12-12T07:22:02.112Z,33.73
2018-12-12T07:23:04.554Z,38.15
2018-12-12T07:24:07.016Z,24.45
2018-12-12T07:25:09.475Z,26.00
2018-12-12T07:26:11.915Z,29.98
2018-12-12T07:27:14.353Z,35.17
2018-12-12T07:28:16.804Z,25.65
2018-12-12T07:29:19.255Z,30.80
2018-12-12T07:30:21.687Z,25.25
2018-12-12T07:31:24.149Z,27.80
2018-12-12T07:32:26.595Z,30.77
2018-12-12T07:33:29.053Z,23.65
2018-12-12T07:34:31.506Z,24.80
2018-12-12T07:35:33.950Z,29.07
2018-12-12T07:36:36.482Z,35.23
2018-12-12T07:37:38.935Z,22.95
2018-12-12T07:38:41.401Z,24.27
2018-12-12T07:39:43.939Z,41.45
2018-12-12T07:40:46.382Z,24.35
2018-12-12T07:41:48.832Z,42.50
2018-12-12T07:42:51.303Z,39.98
2018-12-12T07:43:53.786Z,27.30
2018-12-12T07:44:56.239Z,31.42
2018-12-12T07:45:58.717Z,37.53
2018-12-12T07:47:01.249Z,32.80
2018-12-12T07:48:03.700Z,27.58
2018-12-12T07:49:06.269Z,26.48
2018-12-12T07:50:08.719Z,28.67
2018-12-12T07:51:11.204Z,22.58
2018-12-12T07:52:13.652Z,31.25
2018-12-12T07:53:16.111Z,29.25
2018-12-12T07:54:18.573Z,33.48
2018-12-12T07:55:21.027Z,34.63
2018-12-12T07:56:23.476Z,25.70
2018-12-12T07:57:25.909Z,26.97
2018-12-12T07:58:28.351Z,26.12
2018-12-12T07:59:30.835Z,33.65
2018-12-12T08:00:33.300Z,27.22
2018-12-12T08:01:35.753Z,29.50
2018-12-12T08:02:38.195Z,34.40
2018-12-12T08:03:40.639Z,27.93
2018-12-12T08:04:43.107Z,24.72
2018-12-12T08:05:45.639Z,28.40
2018-12-12T08:06:48.091Z,37.38
2018-12-12T08:07:50.537Z,26.85
2018-12-12T08:08:52.971Z,30.50
2018-12-12T08:09:55.430Z,26.97
2018-12-12T08:10:57.889Z,23.35
2018-12-12T08:12:00.373Z,28.20
2018-12-12T08:13:02.831Z,35.03
2018-12-12T08:14:05.286Z,33.33
2018-12-12T08:15:07.735Z,35.00
2018-12-12T08:16:10.268Z,26.60
2018-12-12T08:17:12.702Z,23.67
2018-12-12T08:18:15.132Z,34.85
2018-12-12T08:19:17.564Z,30.88
2018-12-12T08:20:20.007Z,31.50
2018-12-12T08:21:22.436Z,47.67
2018-12-12T08:22:24.906Z,29.95
2018-12-12T08:23:27.712Z,31.90
2018-12-12T08:24:30.195Z,29.20
2018-12-12T08:25:32.946Z,32.28
2018-12-12T08:26:35.472Z,30.95
2018-12-12T08:27:39.311Z,29.57
2018-12-12T08:28:42.074Z,26.42
2018-12-12T08:29:44.503Z,28.40
2018-12-12T08:30:46.970Z,25.72
2018-12-12T08:31:50.638Z,33.40
2018-12-12T08:32:53.099Z,33.25
2018-12-12T08:33:55.556Z,27.13
2018-12-12T08:34:58.014Z,26.70
2018-12-12T08:36:00.481Z,37.28
2018-12-12T08:37:02.923Z,38.05
2018-12-12T08:38:05.360Z,26.15
2018-12-12T08:39:07.803Z,22.45
2018-12-12T08:40:10.274Z,30.72
2018-12-12T08:41:12.730Z,35.03
2018-12-12T08:42:15.176Z,30.80
2018-12-12T08:43:17.634Z,27.77
2018-12-12T08:44:20.072Z,29.30
2018-12-12T08:45:22.527Z,28.12
2018-12-12T08:46:24.964Z,32.03
2018-12-12T08:47:27.406Z,31.55
2018-12-12T08:48:29.843Z,31.52
2018-12-12T08:49:32.279Z,24.75
2018-12-12T08:50:34.737Z,29.12
2018-12-12T08:51:37.184Z,28.30
2018-12-12T08:52:39.619Z,29.07
2018-12-12T08:53:42.767Z,28.90
2018-12-12T08:54:45.231Z,25.92
2018-12-12T08:55:47.689Z,30.82
2018-12-12T08:56:51.183Z,31.55
2018-12-12T08:57:53.639Z,43.65
2018-12-12T08:58:56.088Z,32.48
2018-12-12T08:59:58.575Z,31.80
2018-12-12T09:01:01.031Z,29.95
2018-12-12T09:02:03.476Z,31.70
2018-12-12T09:03:05.918Z,27.10
2018-12-12T09:04:08.357Z,31.40
2018-12-12T09:05:10.796Z,35.75
2018-12-12T09:06:13.259Z,35.20
2018-12-12T09:07:15.726Z,30.48
2018-12-12T09:08:18.182Z,27.80
2018-12-12T09:09:20.628Z,29.92
2018-12-12T09:10:23.071Z,38.85
2018-12-12T09:11:25.660Z,29.32
2018-12-12T09:12:28.122Z,32.35
2018-12-12T09:13:30.608Z,29.72
2018-12-12T09:14:33.060Z,30.88
2018-12-12T09:15:35.511Z,32.13
2018-12-12T09:16:37.971Z,39.63
2018-12-12T09:17:40.483Z,31.00
2018-12-12T09:18:42.943Z,34.43
2018-12-12T09:19:45.394Z,35.17
2018-12-12T09:20:47.836Z,30.12
2018-12-12T09:21:50.307Z,33.92
2018-12-12T09:22:52.801Z,35.60
2018-12-12T09:23:55.406Z,30.80
2018-12-12T09:24:57.910Z,33.18
2018-12-12T09:26:00.365Z,29.23
2018-12-12T09:27:02.874Z,37.48
2018-12-12T09:28:05.457Z,39.08
2018-12-12T09:29:07.992Z,28.92
2018-12-12T09:30:10.705Z,34.35
2018-12-12T09:31:13.311Z,33.40
2018-12-12T09:32:15.791Z,32.48
2018-12-12T09:33:24.425Z,36.05
2018-12-12T09:34:22.740Z,38.73
2018-12-12T09:35:25.242Z,38.48
2018-12-12T09:36:27.704Z,38.40
2018-12-12T09:37:30.343Z,32.35
2018-12-12T09:38:32.809Z,44.25
2018-12-12T09:39:35.264Z,41.80
2018-12-12T09:40:37.948Z,35.20
2018-12-12T09:41:40.411Z,33.00
2018-12-12T09:42:42.876Z,34.13
2018-12-12T09:43:45.319Z,33.05
2018-12-12T09:44:47.757Z,30.55
2018-12-12T09:45:50.218Z,32.53
2018-12-12T09:46:52.681Z,31.17
2018-12-12T09:47:55.156Z,35.85
2018-12-12T09:48:57.636Z,29.15
2018-12-12T09:50:00.091Z,33.60
2018-12-12T09:51:07.008Z,31.50
2018-12-12T09:52:07.106Z,35.03
2018-12-12T09:53:09.584Z,27.77
2018-12-12T09:54:12.112Z,33.33
2018-12-12T09:55:14.550Z,35.88
2018-12-12T09:56:17.014Z,32.53
2018-12-12T09:57:19.482Z,30.62
2018-12-12T09:58:21.923Z,28.92
2018-12-12T09:59:24.364Z,54.88
2018-12-12T10:00:26.911Z,37.20
2018-12-12T10:01:30.382Z,33.18
2018-12-12T10:02:32.832Z,31.57
2018-12-12T10:03:35.268Z,30.00
2018-12-12T10:04:37.713Z,33.02
2018-12-12T10:05:40.275Z,29.60
2018-12-12T10:06:42.736Z,31.10
2018-12-12T10:07:45.211Z,38.95
2018-12-12T10:08:47.645Z,32.03
2018-12-12T10:09:50.084Z,46.28
2018-12-12T10:10:52.525Z,34.27
2018-12-12T10:11:54.979Z,36.45
2018-12-12T10:12:57.428Z,35.28
2018-12-12T10:13:59.859Z,36.83
2018-12-12T10:15:02.383Z,31.52
2018-12-12T10:16:04.822Z,38.73
2018-12-12T10:17:07.284Z,31.42
2018-12-12T10:18:09.739Z,35.20
2018-12-12T10:19:12.179Z,34.35
2018-12-12T10:20:14.655Z,36.20
2018-12-12T10:21:17.098Z,38.80
2018-12-12T10:22:19.557Z,41.13
2018-12-12T10:23:22.020Z,38.00
2018-12-12T10:24:24.552Z,36.90
2018-12-12T10:25:26.992Z,39.05
2018-12-12T10:26:29.437Z,42.50
2018-12-12T10:27:31.888Z,41.55
2018-12-12T10:28:34.340Z,48.15
2018-12-12T10:29:36.815Z,45.33
2018-12-12T10:30:39.335Z,32.23
2018-12-12T10:31:41.791Z,36.58
2018-12-12T10:32:44.253Z,38.00
2018-12-12T10:33:46.717Z,40.70
2018-12-12T10:34:49.181Z,44.70
2018-12-12T10:35:51.625Z,38.48
2018-12-12T10:36:54.074Z,40.50
2018-12-12T10:37:56.690Z,36.63
2018-12-12T10:38:59.208Z,45.33
2018-12-12T10:40:01.651Z,44.45
2018-12-12T10:41:04.081Z,42.33
2018-12-12T10:42:06.523Z,42.13
2018-12-12T10:43:08.984Z,36.10
2018-12-12T10:44:11.432Z,43.48
2018-12-12T10:45:13.863Z,35.38
2018-12-12T10:46:16.314Z,31.87
2018-12-12T10:47:18.753Z,35.30
2018-12-12T10:48:21.260Z,40.63
2018-12-12T10:49:23.732Z,33.70
2018-12-12T10:50:26.454Z,34.92
2018-12-12T10:51:28.888Z,33.35
2018-12-12T10:52:31.416Z,41.20
2018-12-12T10:53:33.872Z,38.08
2018-12-12T10:54:36.351Z,47.27
2018-12-12T10:55:38.812Z,38.45
2018-12-12T10:56:41.520Z,34.35
2018-12-12T10:57:43.973Z,39.27
2018-12-12T10:58:50.396Z,33.45
2018-12-12T10:59:52.856Z,37.33
2018-12-12T11:02:36.795Z,42.27
2018-12-12T11:03:44.354Z,30.08
2018-12-12T11:04:45.927Z,42.38
2018-12-12T11:05:48.371Z,31.75
2018-12-12T11:06:50.826Z,34.95
2018-12-12T11:07:53.270Z,35.80
2018-12-12T11:08:55.732Z,34.25
2018-12-12T11:09:58.206Z,37.05
2018-12-12T11:11:00.646Z,40.73
2018-12-12T11:12:03.090Z,35.08
2018-12-12T11:13:05.552Z,32.53
2018-12-12T11:14:07.993Z,40.80
2018-12-12T11:15:10.448Z,32.35
2018-12-12T11:16:12.900Z,37.30
2018-12-12T11:17:15.337Z,46.53
2018-12-12T11:18:17.815Z,38.40
2018-12-12T11:19:20.251Z,33.78
2018-12-12T11:20:22.696Z,36.30
2018-12-12T11:21:25.152Z,35.63
2018-12-12T11:22:27.583Z,40.65
2018-12-12T11:23:30.036Z,36.45
2018-12-12T11:24:32.491Z,30.25
2018-12-12T11:25:34.939Z,33.25
2018-12-12T11:26:37.424Z,37.15
2018-12-12T11:27:39.861Z,31.23
2018-12-12T11:28:42.295Z,35.83
2018-12-12T11:29:44.782Z,38.35
2018-12-12T11:30:47.235Z,37.17
2018-12-12T11:31:49.693Z,35.28
2018-12-12T11:32:52.131Z,39.33
2018-12-12T11:33:54.603Z,31.82
2018-12-12T11:34:57.039Z,48.75
2018-12-12T11:35:59.490Z,26.62
2018-12-12T11:37:01.940Z,36.75
2018-12-12T11:38:04.379Z,34.95
2018-12-12T11:39:07.211Z,32.05
2018-12-12T11:40:09.667Z,39.55
2018-12-12T11:41:12.124Z,30.55
2018-12-12T11:42:14.563Z,38.50
2018-12-12T11:43:17.216Z,36.95
2018-12-12T11:44:19.655Z,39.55
2018-12-12T11:45:22.127Z,31.48
2018-12-12T11:46:24.582Z,42.95
2018-12-12T11:47:27.034Z,42.75
2018-12-12T11:48:29.471Z,37.40
2018-12-12T11:49:31.917Z,38.53
2018-12-12T11:50:34.366Z,39.80
2018-12-12T11:51:36.833Z,39.65
2018-12-12T11:52:39.289Z,41.02
2018-12-12T11:53:41.743Z,44.18
2018-12-12T11:54:44.290Z,38.67
2018-12-12T11:55:46.743Z,42.25
2018-12-12T11:56:49.211Z,34.73
2018-12-12T11:57:51.675Z,37.95
2018-12-12T11:58:54.112Z,38.95
2018-12-12T11:59:56.545Z,41.65
2018-12-12T12:00:58.995Z,35.35
2018-12-12T12:02:01.468Z,36.50
2018-12-12T12:03:03.923Z,40.30
2018-12-12T12:04:06.370Z,38.25
2018-12-12T12:05:08.803Z,31.42
2018-12-12T12:06:11.255Z,43.35
2018-12-12T12:07:13.711Z,35.50
2018-12-12T12:08:16.158Z,33.00
2018-12-12T12:09:18.603Z,35.08
2018-12-12T12:10:21.041Z,39.55
2018-12-12T12:11:23.475Z,34.73
2018-12-12T12:12:25.940Z,41.37
2018-12-12T12:13:28.404Z,59.10
2018-12-12T12:14:30.845Z,37.23
2018-12-12T12:15:33.279Z,42.70
2018-12-12T12:16:35.740Z,37.90
2018-12-12T12:17:38.199Z,48.70
2018-12-12T12:18:40.655Z,39.92
2018-12-12T12:19:43.093Z,38.17
2018-12-12T12:20:45.543Z,38.48
2018-12-12T12:21:47.989Z,43.85
2018-12-12T12:22:50.505Z,36.15
2018-12-12T12:23:52.944Z,38.13
2018-12-12T12:24:55.379Z,38.20
2018-12-12T12:25:57.848Z,43.48
2018-12-12T12:27:00.303Z,37.17
2018-12-12T12:28:02.791Z,40.20
2018-12-12T12:29:05.634Z,38.80
2018-12-12T12:30:08.244Z,42.93
2018-12-12T12:31:10.684Z,38.30
2018-12-12T12:32:13.122Z,30.52
2018-12-12T12:33:15.651Z,38.20
2018-12-12T12:34:18.103Z,52.53
2018-12-12T12:35:20.554Z,35.38
2018-12-12T12:36:23.106Z,38.25
2018-12-12T12:37:26.103Z,39.92
2018-12-12T12:38:28.575Z,36.85
2018-12-12T12:39:31.068Z,39.30
2018-12-12T12:40:33.537Z,40.43
2018-12-12T12:41:36.115Z,37.40
2018-12-12T12:42:38.546Z,44.95
2018-12-12T12:43:41.123Z,39.80
2018-12-12T12:44:44.199Z,41.28
2018-12-12T12:45:46.636Z,36.83
2018-12-12T12:46:49.079Z,35.70
2018-12-12T12:47:51.583Z,37.98
2018-12-12T12:48:54.098Z,38.63
2018-12-12T12:49:56.539Z,33.13
2018-12-12T12:50:59.032Z,33.70
2018-12-12T12:52:01.548Z,34.15
2018-12-12T12:53:04.516Z,36.83
2018-12-12T12:54:06.974Z,33.05
2018-12-12T12:55:09.474Z,39.73
2018-12-12T12:56:11.959Z,34.13
2018-12-12T12:57:14.408Z,58.85
2018-12-12T12:58:16.851Z,35.80
2018-12-12T12:59:19.332Z,36.23
2018-12-12T13:00:21.811Z,38.02
2018-12-12T13:01:24.247Z,36.53
2018-12-12T13:02:26.683Z,35.78
2018-12-12T13:03:29.129Z,33.70
2018-12-12T13:04:31.654Z,39.78
2018-12-12T13:05:34.114Z,39.73
2018-12-12T13:06:36.560Z,33.30
2018-12-12T13:07:39.018Z,40.70
2018-12-12T13:08:41.491Z,32.73
2018-12-12T13:09:43.955Z,34.60
2018-12-12T13:10:46.538Z,37.75
2018-12-12T13:11:48.998Z,33.88
2018-12-12T13:12:51.645Z,53.68
2018-12-12T13:13:54.093Z,35.43
2018-12-12T13:14:56.671Z,44.83
2018-12-12T13:15:59.203Z,41.53
2018-12-12T13:17:01.647Z,38.25
2018-12-12T13:18:04.369Z,42.05
2018-12-12T13:19:06.807Z,35.58
2018-12-12T13:20:09.256Z,37.05
2018-12-12T13:21:11.723Z,48.95
2018-12-12T13:22:14.202Z,45.25
2018-12-12T13:23:16.639Z,43.52
2018-12-12T13:24:19.084Z,36.48
2018-12-12T13:25:21.621Z,48.10
2018-12-12T13:26:24.059Z,37.85
2018-12-12T13:27:26.496Z,50.43
2018-12-12T13:28:28.936Z,40.78
2018-12-12T13:29:31.379Z,50.10